Impacts METAR Board
IDs:

KLAS - Las Vegas/McCarran I, NV, US

Updated at: 0300 UTC 17 Jul 2018
Potential Impact None Slight Moderate High
Time 16/15Z 16/16Z 16/17Z 16/18Z 16/19Z 16/20Z 16/21Z 16/22Z 16/23Z 17/00Z 17/01Z 17/02Z 17/03Z
Temp90 93 95 97 100 103 104 106 108 107 107 106 105
Dewpt64 64 63 61 60 59 58 56 55 54 53 55 56
Altim29.95 29.96 29.96 29.96 29.95 29.92 29.89 29.87 29.84 29.83 29.81 29.81 29.82
VIS10 10 10 10 10 10 10 10 10 10 10 10 10
CIG-- -- -- -- -- -- -- -- -- -- -- -- --
CoverSCTSCTSCTSCTSCTSCTSCTSCTSCTSCTSCTSCTSCT
FltCatVFRVFRVFRVFRVFRVFRVFRVFRVFRVFRVFRVFRVFR
WX--------------------------
WDir27001000030019016000080100
WSpd5 0 5 4 0 3 3 5 0 3 6 5 6
WGst-- -- -- -- -- -- -- -- -- -- -- -- --
Raw hourly METARs
KLAS 161456Z 27005KT 10SM SCT140 SCT250 32/18 A2995 RMK AO2 SLP110 ACC E AND W-N T03220178 51019
KLAS 161556Z 00000KT 10SM FEW120 FEW140 SCT250 34/18 A2996 RMK AO2 SLP113 T03390178
KLAS 161656Z 10005KT 10SM FEW120 FEW200 SCT250 35/17 A2996 RMK AO2 SLP112 ACC DSNT N T03500172
KLAS 161756Z VRB04KT 10SM FEW120 FEW200 SCT250 36/16 A2996 RMK AO2 SLP111 TCU DSNT N ACC NE-S T03610161 10361 20306 50001
KLAS 161856Z 00000KT 10SM FEW120 SCT200 SCT250 38/16 A2995 RMK AO2 LTG DSNT N AND NW SLP106 CB DSNT N AND NW ACC S-W T03780156
KLAS 161956Z 30003KT 10SM SCT120 SCT200 39/15 A2992 RMK AO2 LTG DSNT N SLP099 CB DSNT E AND N AND NW ACC SE-S T03940150
KLAS 162056Z 19003KT 10SM SCT120 SCT200 40/14 A2989 RMK AO2 SLP087 ACC DSNT ALQDS T04000144 58022
KLAS 162156Z 16005KT 10SM SCT120 SCT200 41/13 A2987 RMK AO2 SLP080 ACC DSNT ALQDS T04110133
KLAS 162256Z 00000KT 10SM FEW120 SCT200 42/13 A2984 RMK AO2 SLP071 CB DSNT N T04220128
KLAS 162356Z VRB03KT 10SM FEW120 SCT200 42/12 A2983 RMK AO2 SLP066 CB DSNT N T04170122 10422 20361 56019
KLAS 170056Z VRB06KT 10SM FEW120 SCT200 42/12 A2981 RMK AO2 SLP060 T04170117
KLAS 170156Z 08005KT 10SM FEW120 SCT200 41/13 A2981 RMK AO2 SLP061 T04110128
KLAS 170256Z 10006KT 10SM FEW120 SCT200 41/13 A2982 RMK AO2 SLP063 T04060133 55002



Page loaded:  03:45 UTC  |   08:45 PM Pacific  |   09:45 PM Mountain  |   10:45 PM Central  |   11:45 PM Eastern

 

ADVISORIES

FORECASTS

FORECASTS

OBSERVATIONS

USER TOOLS

ABOUT US